sensor_id;sensor_type;location;lat;lon;timestamp;pressure;altitude;pressure_sealevel;temperature;humidity
40245;BME280;25963;42.694;23.600;2022-09-01T00:01:51;95014.47;;;17.38;100.00
40245;BME280;25963;42.694;23.600;2022-09-01T00:04:20;95015.28;;;17.33;100.00
40245;BME280;25963;42.694;23.600;2022-09-01T00:06:46;95007.78;;;17.30;100.00
40245;BME280;25963;42.694;23.600;2022-09-01T00:09:15;95005.94;;;17.36;100.00
40245;BME280;25963;42.694;23.600;2022-09-01T00:11:43;95000.84;;;17.29;100.00
40245;BME280;25963;42.694;23.600;2022-09-01T00:14:10;95000.34;;;17.37;100.00
40245;BME280;25963;42.694;23.600;2022-09-01T00:16:37;94992.06;;;17.33;100.00
40245;BME280;25963;42.694;23.600;2022-09-01T00:19:03;94995.81;;;17.32;100.00
40245;BME280;25963;42.694;23.600;2022-09-01T00:21:33;95003.78;;;17.38;100.00
40245;BME280;25963;42.694;23.600;2022-09-01T00:24:00;94991.75;;;17.20;100.00
40245;BME280;25963;42.694;23.600;2022-09-01T00:26:26;95001.09;;;17.12;100.00
40245;BME280;25963;42.694;23.600;2022-09-01T00:28:52;95010.66;;;17.13;100.00
40245;BME280;25963;42.694;23.600;2022-09-01T00:31:18;95003.47;;;17.08;100.00
40245;BME280;25963;42.694;23.600;2022-09-01T00:33:45;95010.09;;;17.01;100.00
40245;BME280;25963;42.694;23.600;2022-09-01T00:36:11;95007.44;;;17.01;100.00
40245;BME280;25963;42.694;23.600;2022-09-01T00:38:36;95004.78;;;17.01;100.00
40245;BME280;25963;42.694;23.600;2022-09-01T00:41:03;95005.84;;;17.05;100.00
40245;BME280;25963;42.694;23.600;2022-09-01T00:43:42;95003.19;;;17.00;100.00
40245;BME280;25963;42.694;23.600;2022-09-01T00:46:15;95006.88;;;16.94;100.00
40245;BME280;25963;42.694;23.600;2022-09-01T00:48:41;95002.88;;;16.91;100.00
40245;BME280;25963;42.694;23.600;2022-09-01T00:51:09;95007.97;;;17.08;100.00
40245;BME280;25963;42.694;23.600;2022-09-01T00:53:37;95003.19;;;17.10;100.00
40245;BME280;25963;42.694;23.600;2022-09-01T00:56:04;94997.63;;;17.11;100.00
40245;BME280;25963;42.694;23.600;2022-09-01T00:58:31;95002.09;;;17.01;100.00
40245;BME280;25963;42.694;23.600;2022-09-01T01:00:58;95003.16;;;17.05;100.00
40245;BME280;25963;42.694;23.600;2022-09-01T01:03:24;95013.84;;;17.10;100.00
40245;BME280;25963;42.694;23.600;2022-09-01T01:05:53;95020.75;;;17.01;100.00
40245;BME280;25963;42.694;23.600;2022-09-01T01:08:23;95012.59;;;16.70;100.00
40245;BME280;25963;42.694;23.600;2022-09-01T01:11:11;95012.88;;;16.74;100.00
40245;BME280;25963;42.694;23.600;2022-09-01T01:16:18;95017.97;;;16.75;100.00
40245;BME280;25963;42.694;23.600;2022-09-01T01:18:43;95021.22;;;16.82;100.00
40245;BME280;25963;42.694;23.600;2022-09-01T01:21:17;95021.19;;;16.77;100.00
40245;BME280;25963;42.694;23.600;2022-09-01T01:24:14;95031.50;;;16.69;100.00
40245;BME280;25963;42.694;23.600;2022-09-01T01:26:42;95028.59;;;16.70;100.00
40245;BME280;25963;42.694;23.600;2022-09-01T01:29:08;95036.50;;;16.55;100.00
40245;BME280;25963;42.694;23.600;2022-09-01T01:31:34;95030.53;;;16.37;100.00
40245;BME280;25963;42.694;23.600;2022-09-01T01:34:00;95024.00;;;16.18;100.00
40245;BME280;25963;42.694;23.600;2022-09-01T01:36:29;95018.16;;;16.16;100.00
40245;BME280;25963;42.694;23.600;2022-09-01T01:39:07;95024.41;;;16.37;100.00
40245;BME280;25963;42.694;23.600;2022-09-01T01:41:34;95023.91;;;16.40;100.00
40245;BME280;25963;42.694;23.600;2022-09-01T01:44:01;95016.75;;;16.46;100.00
40245;BME280;25963;42.694;23.600;2022-09-01T01:46:30;95019.13;;;16.47;100.00
40245;BME280;25963;42.694;23.600;2022-09-01T01:48:57;95016.00;;;16.55;100.00
40245;BME280;25963;42.694;23.600;2022-09-01T01:51:22;95019.41;;;16.51;100.00
40245;BME280;25963;42.694;23.600;2022-09-01T01:53:53;95017.53;;;16.46;100.00
40245;BME280;25963;42.694;23.600;2022-09-01T01:56:19;95020.00;;;16.58;100.00
40245;BME280;25963;42.694;23.600;2022-09-01T01:58:46;95020.56;;;16.65;100.00
40245;BME280;25963;42.694;23.600;2022-09-01T02:01:13;95032.63;;;16.35;100.00
40245;BME280;25963;42.694;23.600;2022-09-01T02:03:41;95037.97;;;16.35;100.00
40245;BME280;25963;42.694;23.600;2022-09-01T02:06:08;95038.91;;;16.19;100.00
40245;BME280;25963;42.694;23.600;2022-09-01T02:08:35;95039.75;;;16.25;100.00
40245;BME280;25963;42.694;23.600;2022-09-01T02:11:02;95042.72;;;16.28;100.00
40245;BME280;25963;42.694;23.600;2022-09-01T02:13:29;95043.75;;;16.27;100.00
40245;BME280;25963;42.694;23.600;2022-09-01T02:15:59;95046.41;;;16.27;100.00
40245;BME280;25963;42.694;23.600;2022-09-01T02:18:32;95041.59;;;16.24;100.00
40245;BME280;25963;42.694;23.600;2022-09-01T02:21:06;95038.69;;;16.26;100.00
40245;BME280;25963;42.694;23.600;2022-09-01T02:23:37;95035.81;;;16.32;100.00
40245;BME280;25963;42.694;23.600;2022-09-01T02:26:04;95038.97;;;16.29;100.00
40245;BME280;25963;42.694;23.600;2022-09-01T02:28:33;95045.56;;;16.16;100.00
40245;BME280;25963;42.694;23.600;2022-09-01T02:31:01;95045.09;;;16.30;100.00
40245;BME280;25963;42.694;23.600;2022-09-01T02:33:28;95040.84;;;16.29;100.00
40245;BME280;25963;42.694;23.600;2022-09-01T02:35:57;95043.31;;;16.40;100.00
40245;BME280;25963;42.694;23.600;2022-09-01T02:38:24;95041.94;;;16.33;100.00
40245;BME280;25963;42.694;23.600;2022-09-01T02:40:53;95046.47;;;16.32;100.00
40245;BME280;25963;42.694;23.600;2022-09-01T02:43:20;95047.56;;;16.41;100.00
40245;BME280;25963;42.694;23.600;2022-09-01T02:45:50;95043.50;;;16.29;100.00
40245;BME280;25963;42.694;23.600;2022-09-01T02:48:33;95047.88;;;16.45;100.00
40245;BME280;25963;42.694;23.600;2022-09-01T02:51:07;95046.53;;;16.42;100.00
40245;BME280;25963;42.694;23.600;2022-09-01T02:53:32;95054.38;;;16.22;100.00
40245;BME280;25963;42.694;23.600;2022-09-01T02:55:59;95056.38;;;16.05;100.00
40245;BME280;25963;42.694;23.600;2022-09-01T02:58:30;95045.31;;;16.23;100.00
40245;BME280;25963;42.694;23.600;2022-09-01T03:00:59;95042.44;;;16.25;100.00
40245;BME280;25963;42.694;23.600;2022-09-01T03:03:25;95051.22;;;16.30;100.00
40245;BME280;25963;42.694;23.600;2022-09-01T03:05:52;95037.28;;;16.18;100.00
40245;BME280;25963;42.694;23.600;2022-09-01T03:08:21;95044.50;;;16.17;100.00
40245;BME280;25963;42.694;23.600;2022-09-01T03:10:47;95044.41;;;16.07;100.00
40245;BME280;25963;42.694;23.600;2022-09-01T03:13:16;95051.91;;;16.10;100.00
40245;BME280;25963;42.694;23.600;2022-09-01T03:15:42;95041.13;;;15.95;100.00
40245;BME280;25963;42.694;23.600;2022-09-01T03:18:10;95043.28;;;15.98;100.00
40245;BME280;25963;42.694;23.600;2022-09-01T03:20:38;95039.16;;;15.85;100.00
40245;BME280;25963;42.694;23.600;2022-09-01T03:23:06;95037.00;;;15.82;100.00
40245;BME280;25963;42.694;23.600;2022-09-01T03:25:33;95034.28;;;15.72;100.00
40245;BME280;25963;42.694;23.600;2022-09-01T03:27:59;95035.38;;;15.76;100.00
40245;BME280;25963;42.694;23.600;2022-09-01T03:30:27;95047.91;;;15.81;100.00
40245;BME280;25963;42.694;23.600;2022-09-01T03:32:58;95047.19;;;15.90;100.00
40245;BME280;25963;42.694;23.600;2022-09-01T03:35:25;95048.31;;;15.94;100.00
40245;BME280;25963;42.694;23.600;2022-09-01T03:37:53;95036.34;;;15.97;100.00
40245;BME280;25963;42.694;23.600;2022-09-01T03:40:20;95034.47;;;15.92;100.00
40245;BME280;25963;42.694;23.600;2022-09-01T03:42:45;95041.75;;;15.75;100.00
40245;BME280;25963;42.694;23.600;2022-09-01T03:45:11;95038.97;;;15.92;100.00
40245;BME280;25963;42.694;23.600;2022-09-01T03:47:41;95043.63;;;15.74;100.00
40245;BME280;25963;42.694;23.600;2022-09-01T03:50:10;95043.81;;;15.68;100.00
40245;BME280;25963;42.694;23.600;2022-09-01T03:52:46;95041.88;;;15.63;100.00
40245;BME280;25963;42.694;23.600;2022-09-01T03:55:16;95052.72;;;15.57;100.00
40245;BME280;25963;42.694;23.600;2022-09-01T03:57:48;95042.88;;;15.57;100.00
40245;BME280;25963;42.694;23.600;2022-09-01T04:00:13;95046.78;;;15.49;100.00
40245;BME280;25963;42.694;23.600;2022-09-01T04:02:49;95044.88;;;15.45;100.00
40245;BME280;25963;42.694;23.600;2022-09-01T04:05:19;95045.31;;;15.59;100.00
40245;BME280;25963;42.694;23.600;2022-09-01T04:07:50;95040.16;;;15.52;100.00
40245;BME280;25963;42.694;23.600;2022-09-01T04:10:17;95045.13;;;15.43;100.00
40245;BME280;25963;42.694;23.600;2022-09-01T04:12:43;95043.69;;;15.58;100.00
40245;BME280;25963;42.694;23.600;2022-09-01T04:15:11;95045.59;;;15.62;100.00
40245;BME280;25963;42.694;23.600;2022-09-01T04:17:36;95039.88;;;15.70;100.00
40245;BME280;25963;42.694;23.600;2022-09-01T04:20:20;95046.00;;;15.76;100.00
40245;BME280;25963;42.694;23.600;2022-09-01T04:22:48;95032.81;;;15.86;100.00
40245;BME280;25963;42.694;23.600;2022-09-01T04:25:15;95034.75;;;15.96;100.00
40245;BME280;25963;42.694;23.600;2022-09-01T04:27:41;95035.59;;;16.02;100.00
40245;BME280;25963;42.694;23.600;2022-09-01T04:30:10;95041.50;;;16.09;100.00
40245;BME280;25963;42.694;23.600;2022-09-01T04:32:36;95024.72;;;16.08;100.00
40245;BME280;25963;42.694;23.600;2022-09-01T04:35:03;95023.34;;;16.01;100.00
40245;BME280;25963;42.694;23.600;2022-09-01T04:37:29;95027.16;;;16.15;100.00
40245;BME280;25963;42.694;23.600;2022-09-01T04:39:56;95027.06;;;16.37;100.00
40245;BME280;25963;42.694;23.600;2022-09-01T04:42:26;95018.97;;;16.69;100.00
40245;BME280;25963;42.694;23.600;2022-09-01T04:44:54;95024.03;;;17.23;100.00
40245;BME280;25963;42.694;23.600;2022-09-01T04:47:21;95025.22;;;17.89;100.00
40245;BME280;25963;42.694;23.600;2022-09-01T04:49:55;95027.66;;;18.06;100.00
40245;BME280;25963;42.694;23.600;2022-09-01T04:52:23;95027.88;;;18.45;100.00
40245;BME280;25963;42.694;23.600;2022-09-01T04:54:48;95027.28;;;18.89;100.00
40245;BME280;25963;42.694;23.600;2022-09-01T04:57:14;95025.00;;;19.16;100.00
40245;BME280;25963;42.694;23.600;2022-09-01T04:59:41;95030.13;;;19.68;100.00
40245;BME280;25963;42.694;23.600;2022-09-01T05:02:07;95025.91;;;20.30;100.00
40245;BME280;25963;42.694;23.600;2022-09-01T05:04:34;95027.25;;;20.62;100.00
40245;BME280;25963;42.694;23.600;2022-09-01T05:07:02;95023.03;;;20.56;100.00
40245;BME280;25963;42.694;23.600;2022-09-01T05:09:33;95023.94;;;21.18;99.76
40245;BME280;25963;42.694;23.600;2022-09-01T05:12:04;95024.72;;;21.80;95.74
40245;BME280;25963;42.694;23.600;2022-09-01T05:14:40;95030.06;;;22.51;92.69
40245;BME280;25963;42.694;23.600;2022-09-01T05:17:07;95020.34;;;22.69;89.94
40245;BME280;25963;42.694;23.600;2022-09-01T05:19:36;95013.94;;;22.97;88.91
40245;BME280;25963;42.694;23.600;2022-09-01T05:22:02;95018.88;;;23.18;88.29
40245;BME280;25963;42.694;23.600;2022-09-01T05:24:29;95030.06;;;23.25;87.42
40245;BME280;25963;42.694;23.600;2022-09-01T05:26:57;95031.94;;;22.97;90.25
40245;BME280;25963;42.694;23.600;2022-09-01T05:29:25;95022.66;;;23.03;89.73
40245;BME280;25963;42.694;23.600;2022-09-01T05:31:52;95020.78;;;23.31;89.92
40245;BME280;25963;42.694;23.600;2022-09-01T05:34:20;95027.44;;;23.34;88.29
40245;BME280;25963;42.694;23.600;2022-09-01T05:36:51;95019.16;;;22.89;89.15
40245;BME280;25963;42.694;23.600;2022-09-01T05:39:17;95026.94;;;22.76;89.31
40245;BME280;25963;42.694;23.600;2022-09-01T05:41:43;95025.13;;;22.72;91.57
40245;BME280;25963;42.694;23.600;2022-09-01T05:44:11;95032.38;;;22.58;92.70
40245;BME280;25963;42.694;23.600;2022-09-01T05:46:38;95019.81;;;22.53;93.42
40245;BME280;25963;42.694;23.600;2022-09-01T05:49:05;95017.13;;;22.53;94.05
40245;BME280;25963;42.694;23.600;2022-09-01T05:51:32;95025.38;;;22.43;93.07
40245;BME280;25963;42.694;23.600;2022-09-01T05:54:02;95034.88;;;22.21;95.28
40245;BME280;25963;42.694;23.600;2022-09-01T05:56:30;95033.16;;;22.25;94.94
40245;BME280;25963;42.694;23.600;2022-09-01T05:58:56;95029.28;;;22.18;97.56
40245;BME280;25963;42.694;23.600;2022-09-01T06:01:25;95031.22;;;22.12;97.19
40245;BME280;25963;42.694;23.600;2022-09-01T06:03:53;95024.72;;;22.18;96.90
40245;BME280;25963;42.694;23.600;2022-09-01T06:06:24;95022.47;;;22.39;94.40
40245;BME280;25963;42.694;23.600;2022-09-01T06:08:51;95012.06;;;22.65;99.65
40245;BME280;25963;42.694;23.600;2022-09-01T06:11:17;95004.84;;;23.07;97.92
40245;BME280;25963;42.694;23.600;2022-09-01T06:13:45;95008.91;;;23.68;94.75
40245;BME280;25963;42.694;23.600;2022-09-01T06:16:15;95010.78;;;23.32;91.53
40245;BME280;25963;42.694;23.600;2022-09-01T06:18:42;95005.19;;;23.92;93.52
40245;BME280;25963;42.694;23.600;2022-09-01T06:21:09;95011.66;;;24.36;89.05
40245;BME280;25963;42.694;23.600;2022-09-01T06:23:42;95003.16;;;24.74;92.33
40245;BME280;25963;42.694;23.600;2022-09-01T06:26:36;95005.47;;;24.89;84.81
40245;BME280;25963;42.694;23.600;2022-09-01T06:29:06;95002.53;;;24.68;84.82
40245;BME280;25963;42.694;23.600;2022-09-01T06:31:35;95008.56;;;24.43;91.96
40245;BME280;25963;42.694;23.600;2022-09-01T06:34:06;95012.06;;;24.74;92.80
40245;BME280;25963;42.694;23.600;2022-09-01T06:36:35;95007.91;;;25.08;90.56
40245;BME280;25963;42.694;23.600;2022-09-01T06:39:02;95002.13;;;25.41;84.16
40245;BME280;25963;42.694;23.600;2022-09-01T06:41:28;95006.75;;;25.40;82.24
40245;BME280;25963;42.694;23.600;2022-09-01T06:43:55;95002.28;;;25.44;81.63
40245;BME280;25963;42.694;23.600;2022-09-01T06:46:21;95015.03;;;25.13;82.71
40245;BME280;25963;42.694;23.600;2022-09-01T06:48:48;94999.88;;;25.17;82.98
40245;BME280;25963;42.694;23.600;2022-09-01T06:51:18;94995.63;;;24.93;83.79
40245;BME280;25963;42.694;23.600;2022-09-01T06:53:46;94999.78;;;24.99;92.29
40245;BME280;25963;42.694;23.600;2022-09-01T06:56:16;94992.34;;;25.05;91.02
40245;BME280;25963;42.694;23.600;2022-09-01T06:58:43;94984.34;;;25.31;85.61
40245;BME280;25963;42.694;23.600;2022-09-01T07:01:13;94992.31;;;24.96;94.17
40245;BME280;25963;42.694;23.600;2022-09-01T07:03:41;94978.94;;;25.31;90.60
40245;BME280;25963;42.694;23.600;2022-09-01T07:06:06;94984.81;;;25.42;84.89
40245;BME280;25963;42.694;23.600;2022-09-01T07:08:32;94988.81;;;25.53;84.33
40245;BME280;25963;42.694;23.600;2022-09-01T07:11:05;94993.06;;;25.28;81.30
40245;BME280;25963;42.694;23.600;2022-09-01T07:13:32;94981.97;;;25.56;84.00
40245;BME280;25963;42.694;23.600;2022-09-01T07:16:00;94978.78;;;25.54;88.51
40245;BME280;25963;42.694;23.600;2022-09-01T07:18:27;94983.41;;;25.62;84.23
40245;BME280;25963;42.694;23.600;2022-09-01T07:20:53;94983.41;;;25.62;83.91
40245;BME280;25963;42.694;23.600;2022-09-01T07:23:20;94975.13;;;25.41;83.18
40245;BME280;25963;42.694;23.600;2022-09-01T07:25:47;94973.56;;;25.57;84.71
40245;BME280;25963;42.694;23.600;2022-09-01T07:28:15;94975.00;;;25.81;84.67
40245;BME280;25963;42.694;23.600;2022-09-01T07:30:44;94975.75;;;25.29;83.81
40245;BME280;25963;42.694;23.600;2022-09-01T07:33:37;94968.66;;;25.77;85.76
40245;BME280;25963;42.694;23.600;2022-09-01T07:36:02;94969.59;;;25.81;90.16
40245;BME280;25963;42.694;23.600;2022-09-01T07:38:29;94965.19;;;25.85;85.33
40245;BME280;25963;42.694;23.600;2022-09-01T07:40:54;94958.66;;;25.94;88.19
40245;BME280;25963;42.694;23.600;2022-09-01T07:43:25;94955.97;;;25.86;82.58
40245;BME280;25963;42.694;23.600;2022-09-01T07:45:54;94967.22;;;26.05;95.87
40245;BME280;25963;42.694;23.600;2022-09-01T07:48:22;94964.47;;;26.23;91.90
40245;BME280;25963;42.694;23.600;2022-09-01T07:50:50;94959.75;;;25.93;88.50
40245;BME280;25963;42.694;23.600;2022-09-01T07:53:19;94964.03;;;25.77;83.05
40245;BME280;25963;42.694;23.600;2022-09-01T07:55:47;94970.88;;;25.92;90.71
40245;BME280;25963;42.694;23.600;2022-09-01T07:58:17;94962.56;;;26.23;85.61
40245;BME280;25963;42.694;23.600;2022-09-01T08:00:43;94963.50;;;26.45;82.15
40245;BME280;25963;42.694;23.600;2022-09-01T08:03:11;94956.19;;;26.36;84.72
40245;BME280;25963;42.694;23.600;2022-09-01T08:05:36;94957.84;;;26.67;87.48
40245;BME280;25963;42.694;23.600;2022-09-01T08:08:02;94962.72;;;26.82;86.41
40245;BME280;25963;42.694;23.600;2022-09-01T08:10:28;94966.78;;;26.97;84.65
40245;BME280;25963;42.694;23.600;2022-09-01T08:12:53;94969.69;;;26.92;85.28
40245;BME280;25963;42.694;23.600;2022-09-01T08:15:19;94974.59;;;26.60;83.60
40245;BME280;25963;42.694;23.600;2022-09-01T08:17:45;94976.44;;;26.77;88.23
40245;BME280;25963;42.694;23.600;2022-09-01T08:20:11;94979.56;;;26.50;85.29
40245;BME280;25963;42.694;23.600;2022-09-01T08:22:37;94980.75;;;26.78;91.93
40245;BME280;25963;42.694;23.600;2022-09-01T08:25:07;94969.28;;;27.20;85.92
40245;BME280;25963;42.694;23.600;2022-09-01T08:27:36;94972.81;;;27.03;86.08
40245;BME280;25963;42.694;23.600;2022-09-01T08:30:05;94967.31;;;27.29;84.59
40245;BME280;25963;42.694;23.600;2022-09-01T08:32:32;94955.34;;;27.30;92.95
40245;BME280;25963;42.694;23.600;2022-09-01T08:34:58;94955.94;;;27.36;84.65
40245;BME280;25963;42.694;23.600;2022-09-01T08:37:23;94964.63;;;27.50;85.66
40245;BME280;25963;42.694;23.600;2022-09-01T08:39:50;94969.56;;;27.69;81.76
40245;BME280;25963;42.694;23.600;2022-09-01T08:42:56;94970.34;;;27.69;87.55
40245;BME280;25963;42.694;23.600;2022-09-01T08:45:30;94963.78;;;27.79;81.67
40245;BME280;25963;42.694;23.600;2022-09-01T08:48:26;94962.00;;;27.33;85.05
40245;BME280;25963;42.694;23.600;2022-09-01T08:51:12;94961.25;;;27.53;76.98
40245;BME280;25963;42.694;23.600;2022-09-01T08:54:28;94954.97;;;27.61;83.70
40245;BME280;25963;42.694;23.600;2022-09-01T08:56:28;94953.44;;;27.93;85.08
40245;BME280;25963;42.694;23.600;2022-09-01T08:58:54;94949.13;;;28.13;87.30
40245;BME280;25963;42.694;23.600;2022-09-01T09:10:05;94951.53;;;28.73;76.48
40245;BME280;25963;42.694;23.600;2022-09-01T09:16:14;94936.94;;;28.89;69.34
40245;BME280;25963;42.694;23.600;2022-09-01T09:18:42;94937.28;;;28.88;77.18
40245;BME280;25963;42.694;23.600;2022-09-01T09:21:17;94934.13;;;29.10;71.32
40245;BME280;25963;42.694;23.600;2022-09-01T09:23:47;94922.13;;;28.99;73.86
40245;BME280;25963;42.694;23.600;2022-09-01T09:26:15;94925.50;;;28.59;68.50
40245;BME280;25963;42.694;23.600;2022-09-01T09:28:42;94925.06;;;28.94;68.00
40245;BME280;25963;42.694;23.600;2022-09-01T09:31:30;94919.84;;;29.01;80.88
40245;BME280;25963;42.694;23.600;2022-09-01T09:33:57;94911.28;;;28.99;82.06
40245;BME280;25963;42.694;23.600;2022-09-01T09:36:30;94911.81;;;29.42;68.62
40245;BME280;25963;42.694;23.600;2022-09-01T09:41:29;94911.16;;;29.73;63.84
40245;BME280;25963;42.694;23.600;2022-09-01T09:46:42;94901.66;;;29.67;69.43
40245;BME280;25963;42.694;23.600;2022-09-01T09:49:19;94903.50;;;29.63;65.62
40245;BME280;25963;42.694;23.600;2022-09-01T09:52:11;94899.34;;;29.81;69.68
40245;BME280;25963;42.694;23.600;2022-09-01T09:54:37;94889.00;;;29.71;64.46
40245;BME280;25963;42.694;23.600;2022-09-01T09:57:05;94885.78;;;29.97;74.41
40245;BME280;25963;42.694;23.600;2022-09-01T10:02:41;94880.19;;;30.06;59.55
40245;BME280;25963;42.694;23.600;2022-09-01T10:07:52;94881.22;;;29.45;62.85
40245;BME280;25963;42.694;23.600;2022-09-01T10:12:56;94887.94;;;29.35;60.96
40245;BME280;25963;42.694;23.600;2022-09-01T10:15:25;94879.56;;;29.28;60.26
40245;BME280;25963;42.694;23.600;2022-09-01T10:17:52;94872.25;;;29.56;60.28
40245;BME280;25963;42.694;23.600;2022-09-01T10:20:24;94876.38;;;29.78;56.92
40245;BME280;25963;42.694;23.600;2022-09-01T10:22:51;94867.53;;;29.97;55.70
40245;BME280;25963;42.694;23.600;2022-09-01T10:25:22;94868.22;;;29.78;56.79
40245;BME280;25963;42.694;23.600;2022-09-01T10:27:56;94861.59;;;29.92;51.29
40245;BME280;25963;42.694;23.600;2022-09-01T10:30:22;94868.47;;;30.17;52.52
40245;BME280;25963;42.694;23.600;2022-09-01T10:32:49;94861.84;;;30.31;56.25
40245;BME280;25963;42.694;23.600;2022-09-01T10:35:36;94867.72;;;30.48;56.17
40245;BME280;25963;42.694;23.600;2022-09-01T10:38:06;94852.81;;;29.98;50.02
40245;BME280;25963;42.694;23.600;2022-09-01T10:43:22;94855.09;;;30.24;48.06
40245;BME280;25963;42.694;23.600;2022-09-01T10:45:46;94854.53;;;29.75;50.66
40245;BME280;25963;42.694;23.600;2022-09-01T10:48:22;94853.78;;;29.90;50.45
40245;BME280;25963;42.694;23.600;2022-09-01T10:50:51;94846.06;;;29.92;52.19
40245;BME280;25963;42.694;23.600;2022-09-01T10:56:02;94842.22;;;30.09;50.96
40245;BME280;25963;42.694;23.600;2022-09-01T11:01:09;94829.69;;;30.36;46.07
40245;BME280;25963;42.694;23.600;2022-09-01T11:03:48;94842.09;;;30.50;45.72
40245;BME280;25963;42.694;23.600;2022-09-01T11:12:29;94823.78;;;29.87;45.61
40245;BME280;25963;42.694;23.600;2022-09-01T11:15:05;94823.41;;;29.88;46.15
40245;BME280;25963;42.694;23.600;2022-09-01T11:25:41;94816.53;;;30.07;51.36
40245;BME280;25963;42.694;23.600;2022-09-01T11:38:54;94804.41;;;30.20;45.36
40245;BME280;25963;42.694;23.600;2022-09-01T11:47:07;94797.66;;;30.61;44.31
40245;BME280;25963;42.694;23.600;2022-09-01T11:50:01;94795.53;;;31.06;43.67
40245;BME280;25963;42.694;23.600;2022-09-01T11:52:33;94792.00;;;30.86;41.49
40245;BME280;25963;42.694;23.600;2022-09-01T11:55:01;94784.66;;;31.25;46.91
40245;BME280;25963;42.694;23.600;2022-09-01T11:57:36;94794.56;;;31.53;39.24
40245;BME280;25963;42.694;23.600;2022-09-01T12:00:11;94797.44;;;31.60;37.20
40245;BME280;25963;42.694;23.600;2022-09-01T12:02:55;94792.22;;;31.94;37.24
40245;BME280;25963;42.694;23.600;2022-09-01T12:05:49;94773.03;;;31.28;33.40
40245;BME280;25963;42.694;23.600;2022-09-01T12:08:17;94771.88;;;31.68;33.84
40245;BME280;25963;42.694;23.600;2022-09-01T12:10:44;94764.56;;;31.53;36.19
40245;BME280;25963;42.694;23.600;2022-09-01T12:13:22;94764.09;;;31.47;37.09
40245;BME280;25963;42.694;23.600;2022-09-01T12:15:57;94757.00;;;31.43;37.25
40245;BME280;25963;42.694;23.600;2022-09-01T12:18:25;94750.25;;;31.36;38.27
40245;BME280;25963;42.694;23.600;2022-09-01T12:20:53;94754.00;;;30.93;39.04
40245;BME280;25963;42.694;23.600;2022-09-01T12:23:29;94746.78;;;31.01;40.92
40245;BME280;25963;42.694;23.600;2022-09-01T12:25:57;94752.00;;;30.90;39.07
40245;BME280;25963;42.694;23.600;2022-09-01T12:28:25;94751.31;;;30.77;41.49
40245;BME280;25963;42.694;23.600;2022-09-01T12:30:54;94746.66;;;30.58;43.94
40245;BME280;25963;42.694;23.600;2022-09-01T12:33:23;94751.38;;;30.61;41.03
40245;BME280;25963;42.694;23.600;2022-09-01T12:35:50;94743.88;;;30.74;41.37
40245;BME280;25963;42.694;23.600;2022-09-01T12:40:45;94743.44;;;30.37;41.37
40245;BME280;25963;42.694;23.600;2022-09-01T12:43:31;94752.69;;;29.56;44.23
40245;BME280;25963;42.694;23.600;2022-09-01T12:45:57;94745.41;;;29.61;46.12
40245;BME280;25963;42.694;23.600;2022-09-01T12:48:33;94739.69;;;29.50;44.37
40245;BME280;25963;42.694;23.600;2022-09-01T12:51:14;94754.25;;;29.57;44.90
40245;BME280;25963;42.694;23.600;2022-09-01T12:53:59;94742.28;;;29.90;42.78
40245;BME280;25963;42.694;23.600;2022-09-01T12:56:36;94740.22;;;30.31;45.12
40245;BME280;25963;42.694;23.600;2022-09-01T12:59:13;94744.50;;;30.32;43.91
40245;BME280;25963;42.694;23.600;2022-09-01T13:01:44;94747.19;;;29.69;41.80
40245;BME280;25963;42.694;23.600;2022-09-01T13:06:38;94753.19;;;29.90;44.12
40245;BME280;25963;42.694;23.600;2022-09-01T13:09:03;94749.84;;;30.13;46.09
40245;BME280;25963;42.694;23.600;2022-09-01T13:11:29;94739.13;;;29.88;45.19
40245;BME280;25963;42.694;23.600;2022-09-01T13:13:57;94743.00;;;29.43;46.52
40245;BME280;25963;42.694;23.600;2022-09-01T13:16:23;94750.69;;;28.85;47.26
40245;BME280;25963;42.694;23.600;2022-09-01T13:18:48;94751.38;;;28.82;50.32
40245;BME280;25963;42.694;23.600;2022-09-01T13:21:14;94748.03;;;28.60;51.35
40245;BME280;25963;42.694;23.600;2022-09-01T13:23:42;94743.44;;;28.77;50.06
40245;BME280;25963;42.694;23.600;2022-09-01T13:26:08;94747.09;;;28.56;50.00
40245;BME280;25963;42.694;23.600;2022-09-01T13:28:35;94740.56;;;28.57;50.02
40245;BME280;25963;42.694;23.600;2022-09-01T13:31:03;94741.13;;;28.51;51.85
40245;BME280;25963;42.694;23.600;2022-09-01T13:33:32;94743.72;;;28.59;52.93
40245;BME280;25963;42.694;23.600;2022-09-01T13:35:59;94740.69;;;28.49;52.62
40245;BME280;25963;42.694;23.600;2022-09-01T13:38:25;94731.63;;;28.57;51.68
40245;BME280;25963;42.694;23.600;2022-09-01T13:40:51;94740.91;;;28.43;50.94
40245;BME280;25963;42.694;23.600;2022-09-01T13:43:20;94734.78;;;28.34;53.35
40245;BME280;25963;42.694;23.600;2022-09-01T13:45:46;94733.13;;;28.54;52.84
40245;BME280;25963;42.694;23.600;2022-09-01T13:48:12;94750.44;;;28.78;53.15
40245;BME280;25963;42.694;23.600;2022-09-01T13:50:38;94748.91;;;28.64;52.06
40245;BME280;25963;42.694;23.600;2022-09-01T13:53:04;94749.25;;;28.26;51.75
40245;BME280;25963;42.694;23.600;2022-09-01T13:55:33;94744.19;;;28.37;52.33
40245;BME280;25963;42.694;23.600;2022-09-01T13:57:58;94744.63;;;28.27;51.69
40245;BME280;25963;42.694;23.600;2022-09-01T14:00:30;94744.84;;;28.34;51.15
40245;BME280;25963;42.694;23.600;2022-09-01T14:02:59;94751.19;;;28.26;50.77
40245;BME280;25963;42.694;23.600;2022-09-01T14:05:31;94742.47;;;28.57;52.70
40245;BME280;25963;42.694;23.600;2022-09-01T14:07:58;94750.63;;;27.95;55.07
40245;BME280;25963;42.694;23.600;2022-09-01T14:10:25;94742.69;;;27.90;57.41